createdAt,value
2018-08-04T00:01:53.670Z,37.70
2018-08-04T00:04:22.018Z,37.40
2018-08-04T00:06:50.369Z,37.30
2018-08-04T00:09:18.707Z,37.20
2018-08-04T00:11:47.431Z,37.60
2018-08-04T00:14:15.714Z,37.70
2018-08-04T00:16:44.057Z,37.60
2018-08-04T00:19:12.266Z,37.60
2018-08-04T00:21:40.465Z,37.50
2018-08-04T00:24:08.942Z,37.50
2018-08-04T00:26:37.318Z,38.00
2018-08-04T00:29:05.553Z,37.80
2018-08-04T00:31:34.074Z,38.10
2018-08-04T00:34:02.320Z,38.10
2018-08-04T00:36:30.762Z,38.10
2018-08-04T00:38:59.141Z,38.00
2018-08-04T00:41:27.385Z,37.80
2018-08-04T00:43:55.653Z,37.60
2018-08-04T00:46:23.969Z,37.60
2018-08-04T00:48:52.354Z,37.50
2018-08-04T00:51:20.577Z,37.60
2018-08-04T00:53:48.902Z,37.60
2018-08-04T00:56:17.287Z,38.00
2018-08-04T00:58:45.650Z,38.00
2018-08-04T01:01:13.865Z,38.20
2018-08-04T01:03:42.478Z,38.00
2018-08-04T01:06:10.734Z,38.20
2018-08-04T01:08:39.241Z,38.30
2018-08-04T01:11:07.628Z,38.20
2018-08-04T01:13:35.877Z,38.30
2018-08-04T01:16:04.234Z,38.30
2018-08-04T01:18:32.625Z,38.20
2018-08-04T01:21:01.146Z,38.20
2018-08-04T01:23:29.414Z,39.10
2018-08-04T01:25:57.658Z,38.30
2018-08-04T01:28:26.052Z,38.30
2018-08-04T01:30:54.570Z,38.20
2018-08-04T01:33:23.951Z,38.50
2018-08-04T01:38:20.126Z,38.60
2018-08-04T01:40:48.374Z,39.00
2018-08-04T01:43:16.706Z,38.80
2018-08-04T01:45:44.982Z,38.70
2018-08-04T01:48:13.292Z,39.00
2018-08-04T01:50:41.495Z,39.10
2018-08-04T01:53:09.768Z,39.20
2018-08-04T01:55:38.067Z,39.20
2018-08-04T01:58:06.267Z,39.10
2018-08-04T02:00:34.496Z,39.40
2018-08-04T02:05:30.751Z,39.60
2018-08-04T02:07:59.022Z,40.00
2018-08-04T02:10:27.315Z,39.80
2018-08-04T02:12:55.544Z,39.80
2018-08-04T02:15:23.815Z,39.80
2018-08-04T02:17:52.045Z,40.60
2018-08-04T02:20:20.314Z,40.00
2018-08-04T02:22:48.551Z,39.70
2018-08-04T02:25:17.459Z,40.00
2018-08-04T02:27:45.747Z,40.00
2018-08-04T02:30:14.018Z,39.80
2018-08-04T02:32:42.252Z,40.00
2018-08-04T02:35:10.467Z,40.30
2018-08-04T02:37:38.880Z,40.10
2018-08-04T02:40:07.283Z,40.00
2018-08-04T02:42:35.496Z,40.30
2018-08-04T02:45:03.911Z,40.30
2018-08-04T02:47:32.191Z,40.70
2018-08-04T02:50:01.043Z,40.50
2018-08-04T02:52:29.315Z,40.50
2018-08-04T02:54:57.584Z,40.70
2018-08-04T02:57:25.771Z,40.70
2018-08-04T02:59:54.172Z,40.60
2018-08-04T03:02:22.483Z,40.70
2018-08-04T03:04:50.694Z,41.10
2018-08-04T03:07:18.902Z,41.00
2018-08-04T03:09:47.309Z,42.10
2018-08-04T03:12:15.791Z,41.60
2018-08-04T03:14:44.005Z,41.80
2018-08-04T03:17:12.235Z,42.30
2018-08-04T03:19:40.475Z,42.00
2018-08-04T03:22:08.777Z,41.90
2018-08-04T03:24:37.027Z,42.10
2018-08-04T03:27:05.239Z,41.80
2018-08-04T03:29:33.498Z,41.90
2018-08-04T03:32:01.951Z,42.60
2018-08-04T03:34:30.287Z,42.30
2018-08-04T03:36:58.523Z,42.10
2018-08-04T03:39:26.814Z,42.00
2018-08-04T03:41:55.213Z,42.90
2018-08-04T03:44:23.456Z,42.80
2018-08-04T03:49:19.682Z,42.60
2018-08-04T03:51:47.910Z,42.60
2018-08-04T03:54:16.346Z,43.20
2018-08-04T03:56:44.559Z,42.80
2018-08-04T03:59:12.762Z,42.80
2018-08-04T04:01:40.985Z,42.50
2018-08-04T04:04:10.224Z,42.80
2018-08-04T04:06:38.760Z,43.10
2018-08-04T04:11:35.370Z,42.80
2018-08-04T04:14:05.142Z,42.50
2018-08-04T04:16:33.395Z,42.60
2018-08-04T04:19:01.891Z,42.50
2018-08-04T04:21:30.211Z,42.40
2018-08-04T04:23:58.427Z,42.10
2018-08-04T04:26:26.731Z,41.80
2018-08-04T04:28:55.127Z,41.90
2018-08-04T04:31:23.367Z,41.70
2018-08-04T04:33:51.615Z,41.70
2018-08-04T04:36:19.879Z,42.00
2018-08-04T04:38:48.109Z,42.20
2018-08-04T04:41:16.370Z,42.20
2018-08-04T04:43:44.575Z,42.50
2018-08-04T04:46:12.844Z,41.50
2018-08-04T04:48:41.035Z,41.40
2018-08-04T04:51:09.390Z,41.10
2018-08-04T04:53:37.598Z,40.80
2018-08-04T04:56:05.898Z,40.80
2018-08-04T04:58:34.110Z,40.80
2018-08-04T05:01:02.495Z,41.10
2018-08-04T05:03:31.059Z,41.50
2018-08-04T05:05:59.246Z,41.50
2018-08-04T05:08:27.766Z,41.90
2018-08-04T05:10:56.137Z,42.30
2018-08-04T05:13:25.113Z,41.90
2018-08-04T05:15:53.298Z,41.70
2018-08-04T05:18:21.505Z,41.30
2018-08-04T05:20:49.821Z,41.40
2018-08-04T05:23:18.052Z,41.30
2018-08-04T05:25:46.275Z,41.40
2018-08-04T05:28:14.485Z,41.20
2018-08-04T05:30:43.042Z,41.10
2018-08-04T05:33:11.330Z,40.70
2018-08-04T05:35:39.692Z,40.50
2018-08-04T05:38:07.946Z,40.40
2018-08-04T05:40:36.198Z,40.40
2018-08-04T05:43:04.415Z,40.70
2018-08-04T05:45:32.663Z,41.30
2018-08-04T05:48:00.969Z,40.70
2018-08-04T05:50:29.210Z,40.50
2018-08-04T05:52:57.542Z,41.20
2018-08-04T05:57:53.863Z,41.40
2018-08-04T06:00:22.054Z,41.10
2018-08-04T06:02:50.430Z,41.10
2018-08-04T06:05:18.746Z,41.30
2018-08-04T06:07:47.012Z,41.30
2018-08-04T06:10:15.251Z,41.30
2018-08-04T06:12:43.516Z,41.20
2018-08-04T06:15:11.737Z,41.00
2018-08-04T06:17:40.163Z,40.80
2018-08-04T06:20:08.461Z,40.60
2018-08-04T06:22:36.672Z,40.60
2018-08-04T06:27:32.978Z,40.00
2018-08-04T06:30:02.030Z,39.70
2018-08-04T06:32:30.331Z,39.50
2018-08-04T06:34:58.560Z,39.40
2018-08-04T06:37:26.771Z,39.70
2018-08-04T06:39:55.043Z,39.60
2018-08-04T06:42:23.475Z,39.40
2018-08-04T06:44:51.695Z,38.90
2018-08-04T06:47:19.924Z,38.30
2018-08-04T06:49:48.838Z,38.30
2018-08-04T06:52:17.077Z,38.10
2018-08-04T06:54:45.355Z,37.10
2018-08-04T06:57:13.590Z,37.10
2018-08-04T06:59:41.823Z,37.50
2018-08-04T07:02:10.079Z,37.50
2018-08-04T07:04:38.366Z,37.50
2018-08-04T07:07:07.160Z,37.40
2018-08-04T07:09:35.398Z,36.70
2018-08-04T07:12:04.350Z,35.90
2018-08-04T07:17:00.640Z,35.90
2018-08-04T07:19:29.112Z,35.80
2018-08-04T07:21:57.358Z,35.50
2018-08-04T07:26:53.658Z,35.30
2018-08-04T07:29:21.893Z,34.80
2018-08-04T07:31:50.326Z,34.70
2018-08-04T07:34:18.677Z,34.40
2018-08-04T07:36:47.572Z,34.20
2018-08-04T07:39:15.918Z,34.20
2018-08-04T07:41:44.130Z,34.60
2018-08-04T07:44:12.370Z,34.80
2018-08-04T07:46:40.746Z,33.90
2018-08-04T07:49:10.017Z,33.10
2018-08-04T07:51:38.335Z,32.40
2018-08-04T07:54:06.659Z,31.90
2018-08-04T07:56:34.933Z,31.50
2018-08-04T07:59:03.492Z,31.10
2018-08-04T08:01:31.974Z,30.90
2018-08-04T08:04:00.189Z,30.20
2018-08-04T08:06:28.374Z,29.50
2018-08-04T08:08:57.044Z,28.10
2018-08-04T08:11:25.357Z,26.70
2018-08-04T08:13:53.539Z,25.10
2018-08-04T08:16:23.196Z,24.70
2018-08-04T08:18:51.818Z,23.60
2018-08-04T08:21:20.118Z,22.80
2018-08-04T08:23:48.352Z,22.20
2018-08-04T08:26:16.757Z,21.40
2018-08-04T08:28:45.081Z,21.10
2018-08-04T08:31:13.364Z,21.50
2018-08-04T08:33:41.609Z,22.00
2018-08-04T08:36:10.305Z,22.90
2018-08-04T08:38:38.541Z,23.20
2018-08-04T08:41:06.826Z,24.20
2018-08-04T08:43:35.096Z,24.60
2018-08-04T08:46:03.319Z,24.50
2018-08-04T08:48:32.595Z,23.30
2018-08-04T08:51:00.919Z,23.30
2018-08-04T08:53:29.332Z,22.80
2018-08-04T08:55:57.360Z,21.80
2018-08-04T08:58:25.578Z,20.30
2018-08-04T09:00:53.970Z,19.90
2018-08-04T09:03:22.186Z,19.20
2018-08-04T09:05:50.501Z,18.30
2018-08-04T09:08:18.766Z,17.80
2018-08-04T09:10:47.078Z,17.70
2018-08-04T09:13:15.269Z,17.80
2018-08-04T09:15:43.603Z,17.10
2018-08-04T09:18:11.818Z,17.40
2018-08-04T09:20:40.691Z,17.50
2018-08-04T09:23:09.734Z,17.10
2018-08-04T09:25:38.470Z,17.00
2018-08-04T09:28:06.665Z,17.60
2018-08-04T09:30:34.918Z,17.90
2018-08-04T09:33:03.174Z,18.20
2018-08-04T09:35:31.411Z,18.90
2018-08-04T09:37:59.701Z,19.10
2018-08-04T09:40:27.930Z,19.60
2018-08-04T09:42:56.149Z,19.40
2018-08-04T09:45:24.845Z,19.80
2018-08-04T09:47:53.771Z,19.80
2018-08-04T09:50:21.966Z,19.10
2018-08-04T09:52:50.179Z,18.50
2018-08-04T09:55:18.487Z,18.40
2018-08-04T09:57:47.388Z,18.10
2018-08-04T10:00:21.178Z,17.30
2018-08-04T10:02:49.426Z,16.80
2018-08-04T10:05:17.810Z,15.80
2018-08-04T10:07:45.966Z,15.50
2018-08-04T10:10:14.215Z,15.00
2018-08-04T10:12:42.390Z,15.50
2018-08-04T10:15:11.478Z,15.50
2018-08-04T10:17:40.206Z,15.00
2018-08-04T10:20:10.656Z,14.60
2018-08-04T10:22:39.467Z,14.60
2018-08-04T10:25:08.543Z,14.40
2018-08-04T10:27:37.269Z,13.80
2018-08-04T10:30:08.190Z,14.10
2018-08-04T10:32:36.625Z,14.60
2018-08-04T10:35:05.104Z,14.50
2018-08-04T10:37:33.630Z,14.90
2018-08-04T10:40:01.929Z,14.30
2018-08-04T10:42:30.225Z,14.30
2018-08-04T10:44:58.465Z,13.70
2018-08-04T10:47:26.699Z,13.30
2018-08-04T10:49:56.119Z,13.10
2018-08-04T10:52:25.457Z,12.90
2018-08-04T10:54:54.035Z,12.80
2018-08-04T10:57:22.278Z,12.60
2018-08-04T10:59:50.488Z,12.50
2018-08-04T11:02:18.766Z,12.50
2018-08-04T11:04:47.154Z,12.80
2018-08-04T11:07:15.434Z,13.10
2018-08-04T11:09:43.627Z,13.30
2018-08-04T11:12:11.852Z,13.20
2018-08-04T11:14:40.149Z,13.30
2018-08-04T11:17:08.595Z,13.30
2018-08-04T11:19:36.826Z,13.20
2018-08-04T11:22:05.314Z,13.20
2018-08-04T11:27:01.606Z,13.00
2018-08-04T11:29:29.810Z,13.20
2018-08-04T11:31:58.050Z,12.70
2018-08-04T11:34:26.246Z,12.60
2018-08-04T11:36:55.173Z,13.00
2018-08-04T11:39:23.410Z,12.60
2018-08-04T11:41:51.594Z,12.60
2018-08-04T11:44:19.838Z,12.40
2018-08-04T11:46:48.095Z,12.50
2018-08-04T11:49:16.378Z,12.80
2018-08-04T11:51:44.566Z,12.80
2018-08-04T11:54:12.757Z,13.00
2018-08-04T11:56:41.016Z,13.20
2018-08-04T11:59:09.443Z,13.20
2018-08-04T12:01:37.697Z,13.10
2018-08-04T12:04:06.178Z,13.20
2018-08-04T12:06:34.359Z,12.90
2018-08-04T12:09:05.594Z,12.90
2018-08-04T12:11:33.818Z,12.60
2018-08-04T12:14:02.264Z,12.50
2018-08-04T12:16:30.466Z,12.20
2018-08-04T12:18:58.685Z,12.50
2018-08-04T12:21:26.876Z,12.40
2018-08-04T12:26:34.268Z,12.50
2018-08-04T12:29:04.054Z,12.30
2018-08-04T12:31:32.397Z,11.90
2018-08-04T12:34:00.551Z,12.00
2018-08-04T12:36:28.736Z,12.00
2018-08-04T12:38:57.076Z,11.80
2018-08-04T12:41:25.390Z,11.30
2018-08-04T12:43:53.618Z,11.60
2018-08-04T12:46:21.909Z,11.80
2018-08-04T12:48:50.881Z,11.80
2018-08-04T12:51:19.078Z,11.80
2018-08-04T12:53:48.426Z,11.80
2018-08-04T12:56:17.163Z,12.00
2018-08-04T12:58:45.469Z,12.60
2018-08-04T13:01:13.738Z,13.30
2018-08-04T13:03:41.973Z,13.70
2018-08-04T13:06:10.349Z,14.10
2018-08-04T13:08:38.913Z,14.50
2018-08-04T13:11:07.108Z,15.10
2018-08-04T13:13:35.720Z,15.90
2018-08-04T13:16:03.894Z,16.00
2018-08-04T13:18:32.147Z,16.50
2018-08-04T13:21:00.446Z,17.00
2018-08-04T13:23:28.726Z,17.10
2018-08-04T13:25:56.929Z,17.80
2018-08-04T13:28:25.694Z,17.80
2018-08-04T13:30:54.151Z,18.00
2018-08-04T13:33:22.342Z,17.90
2018-08-04T13:35:50.549Z,18.00
2018-08-04T13:38:18.759Z,18.40
2018-08-04T13:40:47.165Z,19.50
2018-08-04T13:43:15.470Z,20.40
2018-08-04T13:45:43.717Z,20.40
2018-08-04T13:48:11.955Z,19.70
2018-08-04T13:50:40.206Z,21.60
2018-08-04T13:53:08.745Z,21.20
2018-08-04T13:55:36.962Z,21.80
2018-08-04T13:58:05.417Z,22.10
2018-08-04T14:00:33.762Z,22.90
2018-08-04T14:03:02.743Z,22.90
2018-08-04T14:05:31.115Z,23.50
2018-08-04T14:07:59.313Z,22.60
2018-08-04T14:10:27.511Z,22.20
2018-08-04T14:12:55.776Z,23.30
2018-08-04T14:15:24.004Z,24.50
2018-08-04T14:17:52.918Z,24.80
2018-08-04T14:20:22.289Z,24.80
2018-08-04T14:22:51.146Z,24.70
2018-08-04T14:25:19.947Z,25.20
2018-08-04T14:27:48.907Z,25.60
2018-08-04T14:30:17.930Z,25.10
2018-08-04T14:32:48.053Z,24.70
2018-08-04T14:35:16.943Z,24.70
2018-08-04T14:37:46.053Z,24.70
2018-08-04T14:40:14.907Z,25.30
2018-08-04T14:42:43.710Z,26.30
2018-08-04T14:45:12.606Z,27.50
2018-08-04T14:47:41.394Z,29.00
2018-08-04T14:50:11.055Z,29.90
2018-08-04T14:52:39.438Z,29.60
2018-08-04T14:55:07.981Z,29.60
2018-08-04T14:57:36.203Z,29.70
2018-08-04T15:00:05.076Z,30.30
2018-08-04T15:02:33.313Z,30.60
2018-08-04T15:05:01.714Z,31.40
2018-08-04T15:07:29.807Z,31.80
2018-08-04T15:09:58.051Z,30.80
2018-08-04T15:12:26.271Z,30.10
2018-08-04T15:14:54.594Z,29.70
2018-08-04T15:17:22.832Z,29.40
2018-08-04T15:19:54.371Z,29.40
2018-08-04T15:22:22.655Z,29.90
2018-08-04T15:24:50.874Z,30.00
2018-08-04T15:27:19.086Z,32.00
2018-08-04T15:29:47.645Z,27.80
2018-08-04T15:32:15.927Z,27.60
2018-08-04T15:34:44.123Z,27.60
2018-08-04T15:37:12.410Z,26.30
2018-08-04T15:39:40.709Z,25.10
2018-08-04T15:42:08.999Z,25.30
2018-08-04T15:44:37.937Z,24.90
2018-08-04T15:47:06.197Z,25.20
2018-08-04T15:49:34.503Z,29.80
2018-08-04T15:52:02.923Z,32.80
2018-08-04T15:54:31.309Z,38.60
2018-08-04T15:56:59.522Z,39.20
2018-08-04T15:59:27.718Z,39.40
2018-08-04T16:01:55.976Z,40.80
2018-08-04T16:04:24.283Z,40.20
2018-08-04T16:06:52.530Z,38.90
2018-08-04T16:09:20.837Z,36.90
2018-08-04T16:11:49.017Z,34.50
2018-08-04T16:14:17.309Z,32.40
2018-08-04T16:16:45.573Z,31.20
2018-08-04T16:19:13.768Z,30.00
2018-08-04T16:21:42.033Z,30.00
2018-08-04T16:24:10.361Z,31.00
2018-08-04T16:26:38.684Z,27.80
2018-08-04T16:29:06.895Z,26.50
2018-08-04T16:31:35.130Z,27.30
2018-08-04T16:34:03.502Z,26.00
2018-08-04T16:36:31.979Z,26.80
2018-08-04T16:39:00.186Z,27.00
2018-08-04T16:41:28.374Z,27.30
2018-08-04T16:46:31.217Z,26.80
2018-08-04T16:48:59.434Z,27.70
2018-08-04T16:51:28.015Z,27.20
2018-08-04T16:53:56.437Z,27.60
2018-08-04T16:56:24.927Z,27.80
2018-08-04T16:58:53.169Z,27.50
2018-08-04T17:01:21.390Z,27.80
2018-08-04T17:03:49.648Z,29.90
2018-08-04T17:06:18.732Z,29.20
2018-08-04T17:08:47.119Z,31.30
2018-08-04T17:11:15.659Z,31.30
2018-08-04T17:13:43.907Z,31.90
2018-08-04T17:16:12.182Z,31.90
2018-08-04T17:18:40.447Z,32.20
2018-08-04T17:21:08.826Z,33.10
2018-08-04T17:23:37.080Z,31.90
2018-08-04T17:26:05.396Z,33.20
2018-08-04T17:28:33.706Z,33.10
2018-08-04T17:31:02.471Z,34.00
2018-08-04T17:33:30.721Z,33.10
2018-08-04T17:35:58.963Z,34.30
2018-08-04T17:38:27.200Z,34.00
2018-08-04T17:40:55.683Z,34.40
2018-08-04T17:43:23.987Z,34.90
2018-08-04T17:45:52.247Z,34.90
2018-08-04T17:48:20.494Z,34.90
2018-08-04T17:50:48.718Z,34.70
2018-08-04T17:53:16.950Z,34.20
2018-08-04T17:55:45.156Z,34.10
2018-08-04T17:58:13.337Z,33.60
2018-08-04T18:00:41.601Z,33.20
2018-08-04T18:03:10.454Z,34.40
2018-08-04T18:05:38.867Z,35.40
2018-08-04T18:08:07.111Z,34.30
2018-08-04T18:10:35.927Z,34.70
2018-08-04T18:13:04.216Z,34.80
2018-08-04T18:15:32.634Z,35.00
2018-08-04T18:18:01.036Z,35.40
2018-08-04T18:20:29.290Z,35.80
2018-08-04T18:22:57.554Z,36.10
2018-08-04T18:25:25.889Z,36.90
2018-08-04T18:27:54.398Z,37.40
2018-08-04T18:30:23.156Z,37.80
2018-08-04T18:32:51.465Z,38.10
2018-08-04T18:35:19.822Z,38.20
2018-08-04T18:37:48.192Z,37.90
2018-08-04T18:40:16.504Z,37.70
2018-08-04T18:42:45.293Z,38.10
2018-08-04T18:45:13.522Z,38.00
2018-08-04T18:47:41.805Z,38.40
2018-08-04T18:50:10.234Z,38.70
2018-08-04T18:52:38.534Z,37.90
2018-08-04T18:55:06.778Z,38.40
2018-08-04T18:57:35.102Z,39.20
2018-08-04T19:00:03.793Z,38.40
2018-08-04T19:02:33.093Z,38.70
2018-08-04T19:07:29.418Z,39.20
2018-08-04T19:09:57.662Z,38.60
2018-08-04T19:12:25.941Z,39.30
2018-08-04T19:14:54.713Z,40.10
2018-08-04T19:17:23.191Z,40.00
2018-08-04T19:19:51.427Z,40.10
2018-08-04T19:22:19.820Z,40.70
2018-08-04T19:24:48.035Z,41.60
2018-08-04T19:27:16.401Z,40.80
2018-08-04T19:29:45.150Z,41.20
2018-08-04T19:32:13.370Z,40.90
2018-08-04T19:34:41.614Z,42.00
2018-08-04T19:37:09.890Z,41.70
2018-08-04T19:39:38.179Z,42.30
2018-08-04T19:42:06.419Z,42.30
2018-08-04T19:44:34.743Z,42.80
2018-08-04T19:47:03.119Z,42.80
2018-08-04T19:49:31.375Z,42.40
2018-08-04T19:51:59.637Z,42.50
2018-08-04T19:54:27.942Z,42.20
2018-08-04T19:56:56.460Z,42.90
2018-08-04T19:59:24.823Z,43.40
2018-08-04T20:01:54.103Z,43.00
2018-08-04T20:04:22.319Z,43.10
2018-08-04T20:06:50.575Z,43.70
2018-08-04T20:09:18.807Z,43.40
2018-08-04T20:11:47.367Z,43.30
2018-08-04T20:14:15.865Z,43.10
2018-08-04T20:16:44.053Z,43.00
2018-08-04T20:19:12.263Z,43.00
2018-08-04T20:21:40.619Z,42.90
2018-08-04T20:24:09.000Z,43.10
2018-08-04T20:26:37.336Z,43.20
2018-08-04T20:29:05.640Z,43.80
2018-08-04T20:31:33.819Z,43.70
2018-08-04T20:34:02.271Z,43.40
2018-08-04T20:36:30.635Z,43.60
2018-08-04T20:38:58.858Z,43.40
2018-08-04T20:41:27.171Z,43.10
2018-08-04T20:43:55.728Z,43.50
2018-08-04T20:46:24.156Z,43.40
2018-08-04T20:48:52.654Z,43.60
2018-08-04T20:51:20.877Z,43.30
2018-08-04T20:53:49.146Z,43.00
2018-08-04T20:56:17.848Z,43.20
2018-08-04T20:58:46.233Z,43.10
2018-08-04T21:01:25.970Z,43.00
2018-08-04T21:03:54.319Z,43.60
2018-08-04T21:06:22.551Z,44.70
2018-08-04T21:08:50.782Z,44.60
2018-08-04T21:11:19.303Z,44.50
2018-08-04T21:13:47.883Z,44.20
2018-08-04T21:16:16.635Z,44.40
2018-08-04T21:18:44.855Z,44.50
2018-08-04T21:21:13.103Z,44.60
2018-08-04T21:23:41.580Z,44.20
2018-08-04T21:26:09.908Z,43.70
2018-08-04T21:28:38.235Z,44.40
2018-08-04T21:31:06.431Z,44.40
2018-08-04T21:33:35.035Z,43.90
2018-08-04T21:36:03.245Z,44.00
2018-08-04T21:38:31.480Z,44.10
2018-08-04T21:40:59.763Z,44.10
2018-08-04T21:43:28.053Z,44.00
2018-08-04T21:45:56.298Z,44.10
2018-08-04T21:48:24.688Z,44.20
2018-08-04T21:50:59.335Z,44.10
2018-08-04T21:53:27.590Z,44.70
2018-08-04T21:55:55.954Z,44.60
2018-08-04T21:58:24.200Z,44.70
2018-08-04T22:00:57.999Z,45.00
2018-08-04T22:03:26.278Z,44.60
2018-08-04T22:05:54.696Z,44.90
2018-08-04T22:08:34.329Z,44.80
2018-08-04T22:11:02.681Z,44.40
2018-08-04T22:13:31.115Z,45.20
2018-08-04T22:15:59.455Z,44.70
2018-08-04T22:18:27.727Z,44.70
2018-08-04T22:20:56.011Z,44.80
2018-08-04T22:23:24.229Z,44.40
2018-08-04T22:25:52.517Z,44.60
2018-08-04T22:28:20.729Z,44.90
2018-08-04T22:30:48.958Z,44.90
2018-08-04T22:33:17.427Z,45.40
2018-08-04T22:35:45.804Z,45.40
2018-08-04T22:38:14.024Z,45.60
2018-08-04T22:40:42.242Z,45.50
2018-08-04T22:43:10.590Z,45.50
2018-08-04T22:45:57.818Z,45.50
2018-08-04T22:48:26.210Z,45.80
2018-08-04T22:53:22.559Z,46.70
2018-08-04T22:55:50.814Z,46.40
2018-08-04T22:58:19.231Z,46.80
2018-08-04T23:00:47.535Z,46.30
2018-08-04T23:03:15.859Z,46.50
2018-08-04T23:05:44.054Z,46.00
2018-08-04T23:08:12.997Z,45.90
2018-08-04T23:10:41.684Z,45.90
2018-08-04T23:13:10.558Z,46.00
2018-08-04T23:15:39.373Z,46.20
2018-08-04T23:18:07.822Z,46.40
2018-08-04T23:20:36.237Z,46.40
2018-08-04T23:23:04.558Z,46.70
2018-08-04T23:25:33.037Z,47.00
2018-08-04T23:28:01.701Z,46.90
2018-08-04T23:30:29.973Z,46.80
2018-08-04T23:32:58.199Z,46.80
2018-08-04T23:35:27.118Z,47.40
2018-08-04T23:37:55.747Z,47.20
2018-08-04T23:40:24.313Z,47.30
2018-08-04T23:42:52.601Z,47.40
2018-08-04T23:45:21.215Z,48.20
2018-08-04T23:47:49.441Z,47.80
2018-08-04T23:50:17.769Z,48.10
2018-08-04T23:52:46.150Z,47.90
2018-08-04T23:55:14.384Z,47.60
2018-08-04T23:57:42.658Z,47.80
